createdAt,value
2023-05-12T00:01:20.080Z,82.79
2023-05-12T00:03:47.380Z,82.71
2023-05-12T00:06:14.563Z,82.76
2023-05-12T00:08:41.590Z,82.76
2023-05-12T00:11:08.688Z,82.92
2023-05-12T00:13:35.793Z,82.70
2023-05-12T00:16:03.625Z,82.67
2023-05-12T00:18:30.804Z,82.52
2023-05-12T00:20:58.264Z,82.81
2023-05-12T00:23:25.248Z,82.30
2023-05-12T00:25:52.297Z,82.31
2023-05-12T00:28:19.472Z,82.21
2023-05-12T00:30:46.500Z,82.36
2023-05-12T00:33:13.574Z,82.46
2023-05-12T00:35:40.530Z,82.59
2023-05-12T00:38:07.613Z,82.54
2023-05-12T00:40:34.616Z,82.15
2023-05-12T00:43:01.675Z,82.17
2023-05-12T00:45:32.175Z,82.36
2023-05-12T00:47:59.341Z,82.34
2023-05-12T00:50:26.635Z,82.27
2023-05-12T00:52:53.738Z,82.23
2023-05-12T00:55:21.122Z,82.35
2023-05-12T00:57:48.138Z,82.36
2023-05-12T01:00:15.312Z,82.35
2023-05-12T01:02:42.647Z,82.04
2023-05-12T01:05:10.188Z,81.76
2023-05-12T01:07:39.115Z,82.14
2023-05-12T01:10:18.009Z,81.62
2023-05-12T01:12:45.272Z,81.67
2023-05-12T01:15:13.163Z,81.76
2023-05-12T01:17:47.177Z,81.76
2023-05-12T01:20:16.919Z,81.84
2023-05-12T01:22:44.272Z,82.03
2023-05-12T01:25:13.108Z,81.49
2023-05-12T01:27:41.450Z,81.40
2023-05-12T01:30:09.910Z,81.49
2023-05-12T01:32:38.828Z,81.79
2023-05-12T01:35:06.202Z,81.75
2023-05-12T01:37:33.326Z,81.65
2023-05-12T01:40:00.440Z,81.48
2023-05-12T01:42:27.592Z,81.35
2023-05-12T01:44:54.558Z,81.42
2023-05-12T01:47:21.890Z,81.26
2023-05-12T01:49:49.105Z,81.25
2023-05-12T01:52:16.065Z,81.14
2023-05-12T01:54:43.207Z,81.34
2023-05-12T01:57:10.218Z,81.22
2023-05-12T01:59:37.375Z,81.00
2023-05-12T02:02:04.586Z,80.87
2023-05-12T02:04:31.595Z,81.21
2023-05-12T02:06:58.679Z,81.29
2023-05-12T02:09:25.704Z,80.85
2023-05-12T02:11:52.859Z,80.82
2023-05-12T02:14:19.928Z,80.80
2023-05-12T02:16:50.155Z,80.63
2023-05-12T02:19:17.127Z,80.81
2023-05-12T02:21:46.252Z,80.89
2023-05-12T02:24:14.904Z,80.71
2023-05-12T02:26:42.289Z,80.51
2023-05-12T02:29:10.544Z,81.06
2023-05-12T02:31:37.685Z,80.66
2023-05-12T02:34:06.653Z,80.61
2023-05-12T02:36:34.005Z,80.69
2023-05-12T02:39:01.098Z,80.72
2023-05-12T02:41:28.569Z,80.55
2023-05-12T02:43:55.520Z,80.43
2023-05-12T02:46:22.585Z,81.02
2023-05-12T02:48:49.616Z,81.74
2023-05-12T02:51:16.667Z,81.67
2023-05-12T02:53:43.631Z,81.20
2023-05-12T02:56:10.579Z,81.38
2023-05-12T02:58:37.737Z,81.87
2023-05-12T03:01:10.698Z,81.92
2023-05-12T03:03:39.088Z,82.09
2023-05-12T03:06:06.942Z,81.68
2023-05-12T03:08:34.051Z,81.43
2023-05-12T03:11:01.120Z,81.49
2023-05-12T03:13:28.068Z,81.59
2023-05-12T03:15:55.926Z,81.01
2023-05-12T03:18:22.996Z,80.77
2023-05-12T03:20:50.034Z,80.77
2023-05-12T03:23:17.227Z,81.19
2023-05-12T03:25:44.223Z,81.36
2023-05-12T03:28:11.702Z,81.56
2023-05-12T03:30:38.769Z,81.66
2023-05-12T03:33:05.807Z,81.23
2023-05-12T03:35:32.761Z,81.14
2023-05-12T03:37:59.808Z,81.17
2023-05-12T03:40:26.993Z,81.11
2023-05-12T03:42:54.004Z,81.32
2023-05-12T03:45:21.500Z,81.17
2023-05-12T03:47:48.676Z,81.00
2023-05-12T03:50:15.831Z,81.03
2023-05-12T03:52:42.838Z,81.13
2023-05-12T03:55:10.652Z,81.10
2023-05-12T03:57:38.343Z,81.26
2023-05-12T04:00:08.925Z,80.81
2023-05-12T04:02:35.938Z,81.01
2023-05-12T04:05:03.003Z,80.91
2023-05-12T04:07:30.020Z,80.81
2023-05-12T04:09:57.020Z,80.72
2023-05-12T04:12:24.296Z,80.80
2023-05-12T04:14:51.828Z,80.57
2023-05-12T04:17:21.564Z,80.69
2023-05-12T04:19:48.667Z,80.95
2023-05-12T04:22:15.777Z,80.86
2023-05-12T04:24:42.708Z,81.13
2023-05-12T04:27:09.784Z,81.11
2023-05-12T04:29:37.232Z,81.30
2023-05-12T04:32:04.540Z,81.10
2023-05-12T04:34:31.705Z,80.96
2023-05-12T04:36:58.634Z,81.00
2023-05-12T04:39:25.717Z,81.00
2023-05-12T04:41:52.701Z,80.83
2023-05-12T04:44:19.675Z,81.14
2023-05-12T04:46:46.661Z,81.17
2023-05-12T04:49:13.637Z,81.29
2023-05-12T04:51:43.075Z,81.31
2023-05-12T04:54:10.619Z,81.09
2023-05-12T04:56:37.863Z,80.70
2023-05-12T04:59:05.040Z,81.02
2023-05-12T05:01:32.216Z,81.03
2023-05-12T05:03:59.257Z,80.81
2023-05-12T05:06:26.309Z,80.68
2023-05-12T05:08:53.361Z,80.70
2023-05-12T05:11:22.014Z,80.71
2023-05-12T05:13:49.069Z,80.54
2023-05-12T05:16:16.140Z,80.85
2023-05-12T05:18:46.685Z,80.76
2023-05-12T05:21:16.927Z,80.89
2023-05-12T05:23:43.919Z,81.18
2023-05-12T05:26:10.985Z,80.76
2023-05-12T05:28:40.129Z,80.57
2023-05-12T05:31:07.727Z,80.70
2023-05-12T05:33:34.800Z,80.78
2023-05-12T05:36:01.973Z,81.02
2023-05-12T05:38:29.028Z,80.90
2023-05-12T05:40:56.165Z,80.22
2023-05-12T05:43:23.284Z,80.09
2023-05-12T05:45:50.850Z,79.96
2023-05-12T05:48:18.284Z,80.01
2023-05-12T05:50:45.423Z,80.28
2023-05-12T05:53:12.394Z,80.25
2023-05-12T05:55:39.431Z,80.29
2023-05-12T05:58:06.380Z,79.97
2023-05-12T06:00:33.373Z,80.23
2023-05-12T06:03:00.494Z,80.07
2023-05-12T06:05:27.729Z,80.25
2023-05-12T06:07:54.828Z,80.29
2023-05-12T06:10:22.403Z,80.00
2023-05-12T06:12:50.650Z,79.92
2023-05-12T06:15:18.892Z,79.79
2023-05-12T06:17:46.216Z,79.86
2023-05-12T06:20:13.664Z,79.68
2023-05-12T06:22:42.546Z,79.74
2023-05-12T06:25:09.837Z,79.59
2023-05-12T06:27:36.939Z,79.67
2023-05-12T06:30:04.508Z,79.19
2023-05-12T06:32:31.690Z,79.13
2023-05-12T06:34:59.064Z,78.76
2023-05-12T06:37:26.040Z,78.70
2023-05-12T06:39:53.101Z,78.76
2023-05-12T06:42:20.107Z,78.97
2023-05-12T06:44:47.152Z,78.62
2023-05-12T06:47:14.124Z,78.27
2023-05-12T06:49:41.140Z,77.76
2023-05-12T06:52:08.164Z,77.91
2023-05-12T06:54:35.210Z,77.99
2023-05-12T06:57:02.214Z,77.44
2023-05-12T06:59:29.276Z,77.59
2023-05-12T07:01:56.404Z,78.60
2023-05-12T07:04:24.515Z,78.82
2023-05-12T07:06:52.728Z,78.71
2023-05-12T07:09:19.982Z,78.39
2023-05-12T07:11:47.240Z,78.33
2023-05-12T07:14:14.251Z,78.26
2023-05-12T07:16:41.269Z,77.93
2023-05-12T07:19:09.777Z,77.95
2023-05-12T07:21:37.333Z,77.38
2023-05-12T07:24:06.285Z,76.22
2023-05-12T07:26:33.576Z,75.52
2023-05-12T07:29:01.332Z,75.59
2023-05-12T07:31:29.007Z,75.97
2023-05-12T07:33:56.208Z,75.40
2023-05-12T07:36:23.367Z,74.88
2023-05-12T07:38:50.441Z,74.71
2023-05-12T07:41:18.163Z,74.28
2023-05-12T07:43:45.700Z,73.90
2023-05-12T07:46:12.874Z,74.04
2023-05-12T07:48:40.587Z,73.84
2023-05-12T07:51:08.059Z,73.17
2023-05-12T07:53:35.626Z,72.75
2023-05-12T07:56:02.815Z,72.48
2023-05-12T07:58:30.062Z,72.12
2023-05-12T08:00:59.281Z,71.87
2023-05-12T08:03:26.615Z,71.35
2023-05-12T08:05:53.721Z,71.37
2023-05-12T08:08:20.756Z,70.82
2023-05-12T08:10:47.741Z,70.75
2023-05-12T08:13:14.752Z,70.30
2023-05-12T08:15:41.785Z,70.71
2023-05-12T08:18:09.107Z,71.13
2023-05-12T08:20:36.286Z,70.58
2023-05-12T08:23:03.298Z,70.12
2023-05-12T08:25:30.817Z,69.20
2023-05-12T08:27:59.503Z,69.21
2023-05-12T08:30:27.355Z,69.80
2023-05-12T08:32:57.473Z,69.71
2023-05-12T08:35:26.684Z,70.15
2023-05-12T08:37:53.842Z,70.15
2023-05-12T08:40:23.368Z,68.21
2023-05-12T08:43:18.587Z,67.17
2023-05-12T08:45:47.339Z,67.63
2023-05-12T08:48:17.202Z,67.35
2023-05-12T08:50:44.993Z,67.83
2023-05-12T08:53:13.882Z,67.96
2023-05-12T08:55:58.413Z,67.77
2023-05-12T08:58:40.993Z,68.08
2023-05-12T09:01:12.363Z,67.55
2023-05-12T09:03:42.487Z,66.91
2023-05-12T09:06:11.646Z,65.91
2023-05-12T09:08:39.599Z,65.76
2023-05-12T09:11:08.809Z,65.82
2023-05-12T09:14:01.112Z,64.25
2023-05-12T09:16:31.633Z,65.47
2023-05-12T09:19:00.879Z,65.24
2023-05-12T09:21:28.796Z,64.88
2023-05-12T09:24:01.298Z,65.05
2023-05-12T09:26:29.164Z,65.02
2023-05-12T09:29:08.957Z,64.38
2023-05-12T09:31:36.582Z,63.56
2023-05-12T09:34:10.444Z,62.24
2023-05-12T09:36:37.675Z,61.72
2023-05-12T09:39:07.365Z,61.77
2023-05-12T09:41:38.799Z,62.33
2023-05-12T09:44:07.145Z,61.65
2023-05-12T09:46:35.209Z,61.03
2023-05-12T09:49:05.421Z,59.47
2023-05-12T09:51:32.681Z,60.63
2023-05-12T09:54:00.946Z,61.06
2023-05-12T09:56:31.520Z,60.96
2023-05-12T09:58:58.985Z,60.88
2023-05-12T10:01:27.267Z,60.83
2023-05-12T10:03:57.190Z,60.25
2023-05-12T10:06:30.678Z,59.80
2023-05-12T10:09:16.622Z,59.02
2023-05-12T10:11:44.852Z,60.53
2023-05-12T10:14:13.594Z,60.12
2023-05-12T10:16:41.663Z,60.24
2023-05-12T10:19:09.764Z,60.30
2023-05-12T10:21:38.274Z,59.43
2023-05-12T10:24:05.692Z,58.79
2023-05-12T10:26:35.089Z,57.73
2023-05-12T10:29:02.477Z,57.21
2023-05-12T10:31:30.402Z,57.52
2023-05-12T10:34:02.025Z,56.93
2023-05-12T10:36:29.710Z,57.71
2023-05-12T10:39:05.826Z,56.14
2023-05-12T10:41:34.787Z,56.21
2023-05-12T10:44:01.782Z,56.01
2023-05-12T10:46:30.700Z,55.48
2023-05-12T10:49:07.001Z,55.46
2023-05-12T10:51:43.288Z,54.26
2023-05-12T10:54:12.678Z,54.39
2023-05-12T10:56:40.183Z,54.13
2023-05-12T10:59:28.896Z,52.36
2023-05-12T11:01:58.954Z,52.45
2023-05-12T11:04:56.137Z,51.64
2023-05-12T11:07:27.239Z,51.67
2023-05-12T11:09:59.263Z,50.42
2023-05-12T11:12:33.059Z,50.23
2023-05-12T11:15:01.710Z,50.04
2023-05-12T11:17:29.938Z,49.57
2023-05-12T11:19:57.120Z,49.85
2023-05-12T11:22:24.615Z,50.39
2023-05-12T11:24:53.114Z,48.19
2023-05-12T11:27:23.344Z,47.21
2023-05-12T11:29:58.677Z,47.21
2023-05-12T11:32:25.876Z,48.07
2023-05-12T11:34:53.310Z,47.89
2023-05-12T11:37:21.486Z,47.51
2023-05-12T11:39:48.892Z,47.81
2023-05-12T11:42:17.716Z,48.31
2023-05-12T11:44:50.648Z,48.47
2023-05-12T11:47:20.050Z,48.23
2023-05-12T11:49:58.215Z,46.83
2023-05-12T11:52:30.682Z,45.80
2023-05-12T11:55:01.078Z,44.91
2023-05-12T11:57:32.847Z,44.53
2023-05-12T12:00:02.424Z,44.76
2023-05-12T12:02:33.541Z,45.08
2023-05-12T12:05:03.466Z,45.64
2023-05-12T12:07:37.652Z,45.87
2023-05-12T12:10:18.520Z,44.07
2023-05-12T12:12:46.402Z,44.78
2023-05-12T12:15:15.868Z,45.07
2023-05-12T12:17:42.868Z,45.86
2023-05-12T12:20:13.286Z,45.77
2023-05-12T12:22:43.308Z,45.00
2023-05-12T12:25:10.269Z,44.06
2023-05-12T12:27:39.760Z,42.12
2023-05-12T12:30:07.467Z,40.52
2023-05-12T12:32:34.455Z,39.56
2023-05-12T12:35:06.844Z,39.98
2023-05-12T12:37:33.809Z,39.28
2023-05-12T12:40:08.074Z,38.91
2023-05-12T12:42:36.327Z,39.50
2023-05-12T12:45:05.222Z,39.98
2023-05-12T12:47:32.435Z,39.98
2023-05-12T12:49:59.998Z,39.67
2023-05-12T12:52:29.767Z,39.00
2023-05-12T12:54:57.581Z,38.19
2023-05-12T12:57:31.894Z,37.86
2023-05-12T12:59:58.812Z,38.48
2023-05-12T13:02:30.647Z,39.19
2023-05-12T13:04:57.796Z,38.87
2023-05-12T13:07:27.331Z,38.31
2023-05-12T13:09:54.400Z,38.84
2023-05-12T13:12:21.414Z,40.63
2023-05-12T13:14:48.457Z,39.82
2023-05-12T13:17:18.230Z,39.08
2023-05-12T13:19:45.198Z,38.78
2023-05-12T13:22:13.371Z,38.78
2023-05-12T13:24:40.338Z,38.14
2023-05-12T13:27:10.059Z,38.44
2023-05-12T13:29:37.334Z,38.94
2023-05-12T13:32:07.078Z,39.24
2023-05-12T13:34:34.090Z,39.10
2023-05-12T13:37:04.080Z,39.48
2023-05-12T13:39:33.411Z,39.62
2023-05-12T13:42:00.653Z,39.92
2023-05-12T13:44:31.267Z,39.58
2023-05-12T13:46:58.284Z,39.30
2023-05-12T13:49:31.241Z,39.27
2023-05-12T13:51:58.235Z,39.51
2023-05-12T13:54:25.476Z,39.29
2023-05-12T13:56:54.648Z,39.78
2023-05-12T13:59:21.752Z,39.73
2023-05-12T14:01:49.018Z,40.30
2023-05-12T14:04:16.500Z,40.60
2023-05-12T14:06:46.217Z,40.62
2023-05-12T14:09:14.395Z,40.05
2023-05-12T14:11:41.442Z,39.36
2023-05-12T14:14:08.474Z,38.69
2023-05-12T14:16:36.970Z,38.45
2023-05-12T14:19:04.147Z,38.36
2023-05-12T14:21:31.159Z,38.09
2023-05-12T14:23:58.204Z,36.73
2023-05-12T14:26:26.273Z,35.79
2023-05-12T14:28:53.405Z,36.94
2023-05-12T14:31:20.605Z,37.65
2023-05-12T14:33:47.648Z,37.85
2023-05-12T14:36:14.617Z,37.72
2023-05-12T14:38:42.875Z,37.79
2023-05-12T14:41:09.971Z,37.78
2023-05-12T14:43:37.334Z,37.72
2023-05-12T14:46:04.691Z,38.02
2023-05-12T14:48:32.050Z,38.36
2023-05-12T14:50:59.191Z,37.90
2023-05-12T14:53:26.364Z,36.89
2023-05-12T14:55:53.368Z,36.78
2023-05-12T14:58:22.332Z,36.78
2023-05-12T15:00:52.372Z,36.13
2023-05-12T15:03:21.625Z,36.46
2023-05-12T15:08:21.905Z,35.42
2023-05-12T15:10:49.174Z,34.81
2023-05-12T15:13:18.413Z,34.28
2023-05-12T15:15:45.820Z,34.32
2023-05-12T15:18:12.819Z,33.65
2023-05-12T15:20:39.980Z,34.05
2023-05-12T15:23:07.044Z,34.59
2023-05-12T15:25:34.149Z,35.19
2023-05-12T15:28:01.146Z,35.66
2023-05-12T15:30:28.209Z,35.86
2023-05-12T15:32:55.296Z,35.87
2023-05-12T15:35:22.925Z,34.28
2023-05-12T15:37:50.127Z,34.59
2023-05-12T15:40:17.437Z,33.71
2023-05-12T15:42:44.687Z,32.51
2023-05-12T15:45:11.784Z,32.74
2023-05-12T15:47:38.869Z,31.97
2023-05-12T15:50:06.594Z,31.94
2023-05-12T15:52:33.633Z,31.71
2023-05-12T15:55:01.155Z,31.48
2023-05-12T15:57:28.192Z,31.59
2023-05-12T15:59:59.082Z,31.56
2023-05-12T16:02:26.475Z,31.90
2023-05-12T16:04:53.641Z,33.03
2023-05-12T16:07:20.921Z,32.91
2023-05-12T16:09:47.924Z,32.43
2023-05-12T16:12:15.648Z,32.48
2023-05-12T16:14:42.671Z,32.94
2023-05-12T16:17:09.749Z,32.82
2023-05-12T16:19:36.745Z,32.85
2023-05-12T16:22:03.770Z,33.39
2023-05-12T16:24:30.700Z,32.21
2023-05-12T16:26:59.460Z,32.56
2023-05-12T16:29:26.949Z,32.28
2023-05-12T16:31:53.934Z,32.23
2023-05-12T16:34:21.343Z,31.42
2023-05-12T16:36:49.041Z,31.79
2023-05-12T16:39:16.091Z,31.58
2023-05-12T16:41:43.036Z,31.92
2023-05-12T16:44:10.143Z,31.92
2023-05-12T16:46:39.302Z,31.63
2023-05-12T16:49:07.701Z,31.48
2023-05-12T16:51:35.771Z,30.84
2023-05-12T16:54:02.733Z,31.00
2023-05-12T16:56:29.687Z,31.01
2023-05-12T16:58:56.741Z,31.50
2023-05-12T17:01:23.795Z,32.42
2023-05-12T17:03:51.217Z,32.97
2023-05-12T17:06:18.268Z,32.67
2023-05-12T17:08:45.309Z,33.46
2023-05-12T17:11:12.286Z,33.28
2023-05-12T17:13:39.340Z,34.18
2023-05-12T17:16:07.008Z,34.20
2023-05-12T17:19:13.671Z,34.91
2023-05-12T17:21:21.003Z,35.61
2023-05-12T17:23:48.466Z,36.26
2023-05-12T17:26:15.885Z,36.33
2023-05-12T17:28:43.305Z,36.18
2023-05-12T17:31:10.796Z,36.57
2023-05-12T17:33:37.850Z,36.57
2023-05-12T17:36:12.461Z,36.47
2023-05-12T17:38:41.105Z,36.49
2023-05-12T17:41:08.121Z,36.67
2023-05-12T17:43:35.100Z,37.08
2023-05-12T17:46:03.093Z,36.85
2023-05-12T17:48:33.457Z,37.15
2023-05-12T17:51:01.511Z,37.70
2023-05-12T17:53:29.185Z,37.56
2023-05-12T17:55:56.201Z,37.99
2023-05-12T17:58:23.575Z,37.93
2023-05-12T18:00:50.739Z,37.85
2023-05-12T18:03:23.505Z,38.21
2023-05-12T18:05:52.282Z,38.47
2023-05-12T18:08:19.310Z,39.07
2023-05-12T18:10:46.855Z,39.12
2023-05-12T18:13:14.880Z,39.05
2023-05-12T18:15:42.098Z,39.28
2023-05-12T18:18:10.304Z,39.14
2023-05-12T18:20:37.391Z,39.45
2023-05-12T18:23:04.499Z,39.72
2023-05-12T18:25:31.582Z,40.30
2023-05-12T18:27:58.567Z,40.02
2023-05-12T18:30:25.691Z,40.63
2023-05-12T18:32:52.903Z,40.83
2023-05-12T18:35:20.142Z,40.64
2023-05-12T18:37:47.362Z,41.19
2023-05-12T18:40:14.631Z,41.02
2023-05-12T18:42:41.712Z,41.08
2023-05-12T18:45:09.126Z,41.56
2023-05-12T18:47:36.229Z,41.14
2023-05-12T18:50:04.391Z,41.28
2023-05-12T18:52:31.453Z,41.75
2023-05-12T18:54:58.610Z,41.89
2023-05-12T18:57:25.755Z,42.33
2023-05-12T18:59:52.890Z,42.33
2023-05-12T19:02:19.932Z,42.42
2023-05-12T19:04:47.040Z,41.99
2023-05-12T19:07:15.637Z,42.95
2023-05-12T19:09:43.526Z,42.96
2023-05-12T19:12:13.409Z,42.36
2023-05-12T19:14:40.979Z,42.43
2023-05-12T19:17:08.047Z,43.08
2023-05-12T19:19:35.165Z,42.67
2023-05-12T19:22:04.256Z,42.90
2023-05-12T19:24:31.637Z,43.31
2023-05-12T19:26:58.725Z,43.46
2023-05-12T19:29:26.292Z,43.38
2023-05-12T19:31:53.839Z,43.38
2023-05-12T19:34:21.680Z,43.75
2023-05-12T19:36:48.783Z,44.06
2023-05-12T19:39:15.779Z,44.34
2023-05-12T19:41:42.974Z,44.47
2023-05-12T19:44:09.899Z,44.97
2023-05-12T19:46:37.018Z,44.98
2023-05-12T19:49:04.426Z,45.12
2023-05-12T19:51:32.177Z,45.65
2023-05-12T19:53:59.627Z,45.98
2023-05-12T19:56:27.311Z,46.17
2023-05-12T19:58:54.281Z,46.47
2023-05-12T20:01:21.478Z,46.64
2023-05-12T20:03:48.652Z,46.79
2023-05-12T20:06:15.778Z,47.06
2023-05-12T20:08:42.746Z,47.05
2023-05-12T20:11:09.903Z,47.45
2023-05-12T20:13:36.948Z,47.43
2023-05-12T20:16:04.299Z,47.43
2023-05-12T20:18:31.477Z,47.78
2023-05-12T20:20:58.524Z,47.75
2023-05-12T20:23:25.666Z,47.90
2023-05-12T20:25:53.414Z,48.40
2023-05-12T20:28:21.528Z,48.28
2023-05-12T20:30:48.528Z,48.37
2023-05-12T20:33:15.661Z,48.73
2023-05-12T20:35:42.634Z,49.03
2023-05-12T20:38:09.654Z,49.20
2023-05-12T20:40:36.627Z,49.23
2023-05-12T20:43:03.897Z,49.28
2023-05-12T20:45:30.893Z,49.55
2023-05-12T20:47:57.920Z,49.65
2023-05-12T20:50:27.013Z,49.85
2023-05-12T20:52:54.025Z,49.66
2023-05-12T20:55:21.259Z,49.97
2023-05-12T20:57:48.428Z,50.13
2023-05-12T21:00:15.815Z,50.00
2023-05-12T21:02:42.926Z,49.99
2023-05-12T21:05:10.444Z,50.02
2023-05-12T21:07:37.497Z,50.06
2023-05-12T21:10:04.889Z,49.87
2023-05-12T21:12:31.917Z,49.91
2023-05-12T21:14:58.957Z,50.04
2023-05-12T21:17:26.061Z,50.20
2023-05-12T21:19:53.074Z,50.48
2023-05-12T21:22:20.439Z,50.51
2023-05-12T21:24:47.803Z,50.62
2023-05-12T21:27:15.892Z,50.77
2023-05-12T21:29:43.011Z,50.75
2023-05-12T21:32:10.007Z,50.77
2023-05-12T21:34:37.094Z,50.86
2023-05-12T21:37:04.161Z,51.09
2023-05-12T21:39:31.334Z,50.88
2023-05-12T21:41:58.322Z,50.98
2023-05-12T21:44:25.513Z,50.70
2023-05-12T21:46:52.515Z,50.69
2023-05-12T21:49:19.589Z,50.73
2023-05-12T21:51:46.633Z,50.70
2023-05-12T21:54:13.638Z,50.75
2023-05-12T21:56:40.730Z,50.76
2023-05-12T21:59:07.718Z,50.85
2023-05-12T22:01:34.802Z,50.87
2023-05-12T22:04:01.965Z,50.68
2023-05-12T22:06:29.067Z,50.89
2023-05-12T22:08:56.138Z,51.08
2023-05-12T22:11:23.717Z,51.21
2023-05-12T22:13:51.284Z,51.01
2023-05-12T22:16:20.020Z,51.35
2023-05-12T22:18:51.043Z,51.44
2023-05-12T22:21:18.030Z,51.50
2023-05-12T22:23:45.077Z,51.55
2023-05-12T22:26:12.074Z,51.59
2023-05-12T22:28:39.076Z,51.66
2023-05-12T22:31:06.140Z,51.90
2023-05-12T22:33:34.751Z,52.09
2023-05-12T22:36:01.869Z,52.06
2023-05-12T22:38:28.862Z,52.24
2023-05-12T22:40:56.059Z,52.42
2023-05-12T22:43:23.039Z,52.17
2023-05-12T22:45:53.137Z,52.30
2023-05-12T22:48:20.402Z,52.32
2023-05-12T22:50:47.657Z,52.55
2023-05-12T22:53:15.007Z,52.64
2023-05-12T22:55:42.064Z,52.56
2023-05-12T22:58:10.468Z,52.55
2023-05-12T23:00:37.846Z,52.87
2023-05-12T23:03:05.069Z,53.09
2023-05-12T23:05:32.180Z,53.25
2023-05-12T23:07:59.164Z,53.45
2023-05-12T23:10:26.257Z,53.54
2023-05-12T23:12:53.261Z,54.02
2023-05-12T23:15:20.510Z,54.32
2023-05-12T23:17:47.654Z,54.54
2023-05-12T23:20:14.714Z,54.44
2023-05-12T23:22:41.698Z,54.59
2023-05-12T23:25:09.286Z,55.04
2023-05-12T23:27:37.220Z,55.30
2023-05-12T23:30:04.931Z,55.35
2023-05-12T23:32:32.303Z,55.31
2023-05-12T23:34:59.481Z,55.59
2023-05-12T23:37:26.881Z,55.80
2023-05-12T23:39:53.944Z,55.93
2023-05-12T23:42:21.353Z,56.18
2023-05-12T23:44:48.397Z,56.22
2023-05-12T23:47:15.405Z,56.58
2023-05-12T23:49:42.388Z,56.76
2023-05-12T23:52:09.443Z,56.53
2023-05-12T23:54:36.420Z,56.71
2023-05-12T23:57:03.771Z,56.77
2023-05-12T23:59:31.032Z,56.63
